Time;durP1;ratioP1;P1;durP2;ratioP2;P2;SDS_P1;SDS_P2;PMS_P1;PMS_P2;Temp;Humidity;BMP_temperature;BMP_pressure;BME280_temperature;BME280_humidity;BME280_pressure;Samples;Min_cycle;Max_cycle;Signal;HPM_P1;HPM_P2
2024/04/08 00:01:55;;;;;;;3.30;1.65;;;16.30;77.80;;;;;;5080911;28;20055;-70
2024/04/08 00:04:22;;;;;;;3.03;1.63;;;;;;;;;;5080434;28;20024;-70
2024/04/08 00:06:48;;;;;;;4.65;1.55;;;;;;;;;;5080222;28;20124;-70
2024/04/08 00:09:14;;;;;;;4.15;1.90;;;;;;;;;;5080077;28;20144;-70
2024/04/08 00:11:40;;;;;;;1.60;1.40;;;16.00;91.30;;;;;;5080180;28;20032;-68
2024/04/08 00:14:05;;;;;;;4.47;1.83;;;16.00;79.20;;;;;;5078681;28;20092;-69
2024/04/08 00:16:31;;;;;;;3.35;1.77;;;15.90;79.70;;;;;;5083318;28;20035;-70
2024/04/08 00:18:57;;;;;;;3.33;1.42;;;;;;;;;;5082764;28;20051;-70
2024/04/08 00:21:23;;;;;;;3.50;1.50;;;15.80;79.70;;;;;;5083354;28;20077;-70
2024/04/08 00:23:48;;;;;;;4.07;1.77;;;15.80;80.30;;;;;;5084830;28;20033;-68
2024/04/08 00:26:14;;;;;;;2.25;1.55;;;15.60;94.20;;;;;;5081014;28;20063;-68
2024/04/08 00:28:40;;;;;;;2.00;1.40;;;15.70;80.50;;;;;;5085885;28;20106;-67
2024/04/08 00:31:08;;;;;;;1.83;1.42;;;15.70;80.50;;;;;;5080070;28;20027;-67
2024/04/08 00:33:34;;;;;;;2.72;1.77;;;15.70;80.70;;;;;;5080012;28;20043;-67
2024/04/08 00:36:01;;;;;;;1.35;1.25;;;15.60;93.40;;;;;;5080289;28;20032;-68
2024/04/08 00:38:27;;;;;;;3.70;1.40;;;15.60;93.50;;;;;;5079655;28;20088;-68
2024/04/08 00:40:53;;;;;;;3.15;1.60;;;15.50;93.50;;;;;;5078465;28;20077;-70
2024/04/08 00:43:19;;;;;;;2.47;1.60;;;;;;;;;;5079540;28;20328;-69
2024/04/08 00:45:49;;;;;;;3.45;1.55;;;15.20;85.60;;;;;;5078371;28;20032;-68
2024/04/08 00:48:16;;;;;;;1.90;1.67;;;15.30;82.90;;;;;;5079492;28;20243;-69
2024/04/08 00:50:45;;;;;;;2.75;1.63;;;15.30;94.60;;;;;;5080152;28;20027;-71
2024/04/08 00:53:12;;;;;;;;;;;15.30;84.40;;;;;;5079921;28;20197;-69
2024/04/08 00:55:39;;;;;;;3.15;1.30;;;15.40;95.30;;;;;;5079622;28;20160;-69
2024/04/08 00:58:05;;;;;;;3.03;1.63;;;15.20;84.70;;;;;;5082780;28;20260;-69
2024/04/08 01:00:31;;;;;;;3.10;1.75;;;15.20;85.10;;;;;;5080094;28;20040;-70
2024/04/08 01:03:03;;;;;;;3.92;2.20;;;15.20;85.60;;;;;;5080937;28;20048;-71
2024/04/08 01:05:30;;;;;;;3.05;1.60;;;15.20;85.80;;;;;;5081193;28;20127;-70
2024/04/08 01:07:59;;;;;;;1.90;1.30;;;15.10;85.70;;;;;;5080125;28;20046;-70
2024/04/08 01:10:24;;;;;;;2.30;1.65;;;15.20;85.90;;;;;;5079576;28;20034;-70
2024/04/08 01:12:50;;;;;;;1.98;1.52;;;15.10;86.10;;;;;;5079751;28;20601;-70
2024/04/08 01:15:18;;;;;;;3.03;1.80;;;15.10;97.30;;;;;;5079416;28;20033;-70
2024/04/08 01:17:49;;;;;;;3.60;1.70;;;15.10;86.70;;;;;;5084386;28;20040;-69
2024/04/08 01:20:15;;;;;;;2.55;1.67;;;15.10;86.90;;;;;;5079241;28;20040;-69
2024/04/08 01:22:42;;;;;;;3.08;1.73;;;15.00;86.50;;;;;;5079520;28;20029;-70
2024/04/08 01:25:08;;;;;;;2.80;2.08;;;15.00;87.00;;;;;;5079608;28;20168;-70
2024/04/08 01:27:33;;;;;;;3.38;1.58;;;15.00;87.30;;;;;;5079408;28;20378;-68
2024/04/08 01:29:59;;;;;;;5.57;1.40;;;15.00;87.70;;;;;;5079279;28;20116;-70
2024/04/08 01:32:24;;;;;;;5.78;1.73;;;15.00;97.40;;;;;;5079335;28;20024;-70
2024/04/08 01:34:50;;;;;;;2.97;1.70;;;14.90;96.60;;;;;;5079078;28;20056;-70
2024/04/08 01:37:16;;;;;;;3.42;1.70;;;14.90;96.40;;;;;;5078841;28;20032;-70
2024/04/08 01:39:42;;;;;;;4.25;2.05;;;14.90;96.20;;;;;;5077837;28;20028;-70
2024/04/08 01:42:07;;;;;;;2.10;1.40;;;14.90;96.00;;;;;;5079422;28;20036;-71
2024/04/08 01:44:33;;;;;;;3.88;2.10;;;15.00;96.00;;;;;;5078858;28;20024;-68
2024/04/08 01:46:59;;;;;;;2.47;1.70;;;14.90;96.10;;;;;;5085106;28;20020;-68
2024/04/08 01:49:27;;;;;;;2.15;1.48;;;14.90;96.20;;;;;;5078879;28;20040;-69
2024/04/08 01:51:53;;;;;;;2.70;1.83;;;14.80;96.20;;;;;;5077693;28;20085;-68
2024/04/08 01:54:20;;;;;;;5.70;1.40;;;14.70;96.50;;;;;;5079054;28;20025;-68
2024/04/08 01:56:47;;;;;;;3.05;1.50;;;14.90;96.30;;;;;;5079064;28;20037;-69
2024/04/08 01:59:12;;;;;;;3.60;2.00;;;14.80;96.10;;;;;;5079501;28;20032;-69
2024/04/08 02:01:38;;;;;;;4.05;1.90;;;14.80;96.40;;;;;;5083453;28;20036;-69
2024/04/08 02:04:04;;;;;;;7.68;1.90;;;14.80;96.70;;;;;;5086181;28;20196;-68
2024/04/08 02:06:29;;;;;;;4.32;1.60;;;14.80;96.70;;;;;;5081880;28;20044;-68
2024/04/08 02:08:55;;;;;;;2.10;1.45;;;14.80;96.80;;;;;;5073351;28;20349;-68
2024/04/08 02:11:21;;;;;;;1.77;1.50;;;14.70;96.70;;;;;;5078786;28;20036;-69
2024/04/08 02:13:47;;;;;;;1.83;1.70;;;;;;;;;;5082458;28;20216;-69
2024/04/08 02:16:14;;;;;;;2.17;1.73;;;14.70;87.10;;;;;;5082874;28;20100;-69
2024/04/08 02:18:40;;;;;;;2.00;1.38;;;;;;;;;;5082137;28;20043;-69
2024/04/08 02:21:11;;;;;;;3.00;1.73;;;14.70;87.10;;;;;;5082198;28;20032;-69
2024/04/08 02:23:37;;;;;;;2.10;1.63;;;14.70;96.50;;;;;;5082379;28;20032;-69
2024/04/08 02:26:03;;;;;;;3.05;1.92;;;14.80;87.40;;;;;;5082860;28;20087;-69
2024/04/08 02:28:30;;;;;;;1.42;1.25;;;14.70;96.70;;;;;;5082260;28;20346;-69
2024/04/08 02:31:03;;;;;;;2.88;1.70;;;14.70;91.40;;;;;;5082094;28;20244;-69
2024/04/08 02:33:29;;;;;;;2.47;1.70;;;14.80;96.70;;;;;;5082702;28;20020;-69
2024/04/08 02:36:01;;;;;;;3.40;2.15;;;14.60;96.40;;;;;;5082130;28;20031;-69
2024/04/08 02:38:27;;;;;;;3.70;1.88;;;14.80;96.50;;;;;;5081994;28;20041;-69
2024/04/08 02:40:53;;;;;;;1.73;1.50;;;14.90;96.30;;;;;;5081939;28;20217;-69
2024/04/08 02:43:18;;;;;;;2.58;1.50;;;14.80;95.80;;;;;;5081757;28;20086;-69
2024/04/08 02:45:44;;;;;;;2.85;1.52;;;14.80;95.30;;;;;;5081910;28;20034;-69
2024/04/08 02:48:10;;;;;;;3.05;1.60;;;15.20;95.20;;;;;;5085009;28;20036;-69
2024/04/08 02:50:35;;;;;;;2.30;1.38;;;15.00;94.70;;;;;;5082603;28;20284;-68
2024/04/08 02:53:01;;;;;;;7.57;1.75;;;14.90;94.70;;;;;;5081613;28;20042;-68
2024/04/08 02:55:27;;;;;;;2.83;1.90;;;14.80;94.60;;;;;;5081585;28;20086;-68
2024/04/08 02:57:52;;;;;;;6.03;1.70;;;14.80;91.20;;;;;;5081618;28;20028;-70
2024/04/08 03:00:18;;;;;;;2.20;1.50;;;14.80;84.00;;;;;;5081523;28;20328;-69
2024/04/08 03:02:45;;;;;;;1.20;1.10;;;14.90;94.80;;;;;;5081507;28;20228;-69
2024/04/08 03:05:11;;;;;;;3.65;1.60;;;14.80;94.60;;;;;;5081462;28;20036;-70
2024/04/08 03:07:37;;;;;;;3.17;1.40;;;14.80;94.40;;;;;;5083128;28;20028;-70
2024/04/08 03:10:04;;;;;;;4.68;1.52;;;14.70;94.60;;;;;;5081242;28;20086;-70
2024/04/08 03:12:30;;;;;;;3.30;1.70;;;14.70;94.90;;;;;;5081299;28;20024;-70
2024/04/08 03:14:57;;;;;;;2.88;1.48;;;14.70;94.70;;;;;;5079917;28;20363;-69
2024/04/08 03:17:23;;;;;;;2.25;1.40;;;14.80;94.40;;;;;;5081432;28;20340;-69
2024/04/08 03:19:55;;;;;;;4.82;1.58;;;14.90;94.30;;;;;;5081248;28;20042;-68
2024/04/08 03:22:21;;;;;;;1.85;1.60;;;14.80;94.40;;;;;;5081029;28;20017;-68
2024/04/08 03:24:47;;;;;;;2.47;1.33;;;15.10;94.60;;;;;;5081601;28;20139;-69
2024/04/08 03:27:13;;;;;;;3.05;1.30;;;14.90;93.80;;;;;;5080993;28;20043;-69
2024/04/08 03:29:38;;;;;;;2.08;1.33;;;14.90;93.20;;;;;;5081379;28;20033;-68
2024/04/08 03:32:04;;;;;;;2.35;1.40;;;15.10;93.00;;;;;;5080886;28;20100;-69
2024/04/08 03:34:35;;;;;;;3.47;1.63;;;14.80;92.90;;;;;;5080936;28;20066;-69
2024/04/08 03:37:01;;;;;;;4.30;1.60;;;14.80;92.70;;;;;;5080790;28;20088;-70
2024/04/08 03:39:27;;;;;;;5.00;1.42;;;14.80;93.00;;;;;;5079603;28;20074;-69
2024/04/08 03:41:53;;;;;;;1.67;1.35;;;14.70;79.80;;;;;;5080019;28;20044;-69
2024/04/08 03:44:19;;;;;;;2.10;1.40;;;14.70;80.60;;;;;;5080918;28;20480;-69
2024/04/08 03:46:45;;;;;;;1.90;1.55;;;14.60;81.50;;;;;;5080734;28;20043;-70
2024/04/08 03:49:10;;;;;;;2.08;1.55;;;14.50;82.40;;;;;;5080887;28;20091;-69
2024/04/08 03:51:36;;;;;;;4.30;1.80;;;14.40;83.50;;;;;;5080189;28;20134;-68
2024/04/08 03:54:03;;;;;;;2.53;1.30;;;14.20;99.90;;;;;;5079763;28;20047;-69
2024/04/08 03:56:28;;;;;;;3.50;1.67;;;14.20;85.30;;;;;;5078846;28;20062;-68
2024/04/08 03:58:54;;;;;;;1.20;1.10;;;14.20;86.40;;;;;;5080954;28;20036;-69
2024/04/08 04:01:20;;;;;;;2.63;1.33;;;14.20;86.60;;;;;;5080505;28;20082;-69
2024/04/08 04:03:46;;;;;;;6.03;1.58;;;14.20;86.20;;;;;;5079192;28;20089;-69
2024/04/08 04:06:12;;;;;;;1.77;1.30;;;14.20;85.70;;;;;;5080132;28;20063;-68
2024/04/08 04:08:38;;;;;;;3.40;1.40;;;14.20;85.40;;;;;;5080181;28;20059;-69
2024/04/08 04:11:04;;;;;;;2.58;1.60;;;14.30;85.10;;;;;;5080094;28;20321;-68
2024/04/08 04:13:29;;;;;;;2.13;1.60;;;14.40;99.90;;;;;;5079968;28;20240;-71
2024/04/08 04:15:55;;;;;;;2.58;1.58;;;14.30;83.70;;;;;;5080653;28;20089;-68
2024/04/08 04:18:21;;;;;;;2.80;1.48;;;14.30;83.40;;;;;;5087333;28;20024;-70
2024/04/08 04:20:47;;;;;;;4.32;1.45;;;14.40;83.70;;;;;;5079994;28;20044;-69
2024/04/08 04:23:19;;;;;;;1.90;1.23;;;14.40;83.60;;;;;;5079512;28;20031;-69
2024/04/08 04:25:53;;;;;;;4.45;1.60;;;14.40;83.40;;;;;;5079723;28;20056;-70
2024/04/08 04:28:19;;;;;;;3.22;1.60;;;14.50;83.30;;;;;;5078389;28;20039;-70
2024/04/08 04:30:58;;;;;;;3.40;1.60;;;14.50;83.20;;;;;;5079722;28;20039;-69
2024/04/08 04:34:40;;;;;;;6.03;1.77;;;14.90;82.20;;;;;;5526209;25;20334;-67
2024/04/08 04:37:06;;;;;;;2.50;1.45;;;14.50;82.50;;;;;;5515378;25;20046;-67
2024/04/08 04:39:32;;;;;;;1.27;1.17;;;14.50;82.80;;;;;;5515480;25;20323;-67
2024/04/08 04:41:58;;;;;;;6.53;1.60;;;14.60;82.90;;;;;;5515924;25;19993;-67
2024/04/08 04:44:23;;;;;;;4.30;1.30;;;14.60;83.10;;;;;;5531781;25;19993;-67
2024/04/08 04:46:50;;;;;;;4.63;1.63;;;14.60;82.70;;;;;;5516457;25;19990;-67
2024/04/08 04:49:16;;;;;;;3.95;1.33;;;14.60;82.40;;;;;;5520288;25;20190;-66
2024/04/08 04:51:43;;;;;;;1.75;1.27;;;14.70;82.60;;;;;;5515224;25;19993;-69
2024/04/08 04:54:09;;;;;;;1.80;1.38;;;14.60;82.50;;;;;;5514801;25;20251;-69
2024/04/08 04:56:35;;;;;;;2.20;1.60;;;14.70;82.10;;;;;;5515059;25;19998;-69
2024/04/08 04:59:00;;;;;;;2.42;1.77;;;14.70;81.90;;;;;;5514766;25;20203;-69
2024/04/08 05:01:26;;;;;;;2.33;1.60;;;14.80;81.80;;;;;;5515166;25;19998;-68
2024/04/08 05:03:52;;;;;;;2.40;1.58;;;14.80;81.30;;;;;;5554327;25;19989;-68
2024/04/08 05:06:18;;;;;;;3.22;1.50;;;14.80;81.60;;;;;;5515287;25;19994;-69
2024/04/08 05:08:44;;;;;;;4.05;1.70;;;14.80;81.80;;;;;;5514571;25;20047;-70
2024/04/08 05:11:10;;;;;;;5.45;1.70;;;14.80;82.60;;;;;;5514725;25;20191;-69
2024/04/08 05:13:37;;;;;;;3.00;1.52;;;14.70;97.80;;;;;;5516254;25;19993;-69
2024/04/08 05:16:03;;;;;;;2.10;1.67;;;14.80;83.40;;;;;;5514736;25;19994;-70
2024/04/08 05:18:30;;;;;;;3.25;1.60;;;14.90;83.70;;;;;;5514894;25;20018;-70
2024/04/08 05:20:57;;;;;;;3.90;1.55;;;14.90;83.50;;;;;;5514892;25;20028;-69
2024/04/08 05:23:25;;;;;;;3.75;1.30;;;14.90;82.80;;;;;;5499879;25;19993;-70
2024/04/08 05:25:52;;;;;;;1.75;1.50;;;16.70;83.70;;;;;;5513941;25;20266;-69
2024/04/08 05:28:18;;;;;;;3.13;1.33;;;15.00;82.30;;;;;;5514587;25;20001;-70
2024/04/08 05:30:44;;;;;;;10.43;1.60;;;15.10;81.80;;;;;;5517829;25;19982;-70
2024/04/08 05:33:10;;;;;;;2.05;1.05;;;15.20;81.70;;;;;;5514328;25;20002;-70
2024/04/08 05:35:44;;;;;;;2.78;1.40;;;15.20;81.90;;;;;;5514855;25;20004;-69
2024/04/08 05:38:11;;;;;;;2.33;1.60;;;15.30;81.60;;;;;;5514490;25;19994;-69
2024/04/08 05:40:37;;;;;;;3.50;1.50;;;15.40;81.30;;;;;;5519431;25;19993;-69
2024/04/08 05:43:04;;;;;;;2.88;1.60;;;15.40;81.60;;;;;;5514415;25;19986;-71
2024/04/08 05:45:30;;;;;;;3.75;1.75;;;15.50;81.00;;;;;;5500572;25;20031;-69
2024/04/08 05:47:56;;;;;;;3.83;1.70;;;15.60;80.10;;;;;;5498746;25;19990;-69
2024/04/08 05:50:23;;;;;;;4.75;1.92;;;15.70;79.40;;;;;;5498689;25;19986;-69
2024/04/08 05:52:49;;;;;;;2.00;1.35;;;15.80;78.80;;;;;;5498556;25;20001;-69
2024/04/08 05:55:15;;;;;;;4.22;1.80;;;15.90;78.20;;;;;;5498564;25;19998;-69
2024/04/08 05:57:41;;;;;;;7.63;2.10;;;16.00;77.90;;;;;;5499397;25;19987;-69
2024/04/08 06:00:12;;;;;;;4.85;2.42;;;16.10;77.50;;;;;;5498611;25;19986;-69
2024/04/08 06:02:38;;;;;;;5.18;2.20;;;16.20;76.90;;;;;;5498394;25;19990;-68
2024/04/08 06:05:05;;;;;;;12.18;2.25;;;16.20;76.60;;;;;;5498503;25;20039;-68
2024/04/08 06:07:30;;;;;;;6.88;2.00;;;16.30;76.40;;;;;;5498628;25;19997;-67
2024/04/08 06:09:57;;;;;;;9.73;2.17;;;16.40;76.20;;;;;;5498448;25;20191;-69
2024/04/08 06:12:24;;;;;;;6.15;2.10;;;16.40;75.80;;;;;;5491709;25;19994;-68
2024/04/08 06:14:50;;;;;;;5.70;2.17;;;16.50;75.40;;;;;;5499009;25;20058;-68
2024/04/08 06:17:16;;;;;;;3.83;1.95;;;16.60;76.00;;;;;;5496551;25;20012;-68
2024/04/08 06:19:43;;;;;;;5.93;2.00;;;16.60;76.10;;;;;;5496547;25;19994;-69
2024/04/08 06:22:09;;;;;;;5.28;2.10;;;16.80;76.20;;;;;;5494855;25;19990;-68
2024/04/08 06:24:34;;;;;;;6.00;1.90;;;16.80;76.10;;;;;;5499926;25;19986;-68
2024/04/08 06:27:00;;;;;;;5.95;1.80;;;16.90;76.90;;;;;;5502275;25;19986;-69
2024/04/08 06:29:26;;;;;;;6.00;2.13;;;17.10;76.30;;;;;;5496122;25;19994;-69
2024/04/08 06:31:52;;;;;;;5.25;1.73;;;17.20;76.70;;;;;;5497884;25;20001;-69
2024/04/08 06:34:18;;;;;;;5.43;1.63;;;17.30;76.10;;;;;;5496745;25;20218;-69
2024/04/08 06:36:44;;;;;;;3.58;1.60;;;17.50;75.60;;;;;;5495545;25;20032;-69
2024/04/08 06:39:10;;;;;;;6.75;1.75;;;17.60;74.70;;;;;;5495549;25;20120;-69
2024/04/08 06:41:36;;;;;;;6.32;1.77;;;17.80;74.00;;;;;;5495730;25;20006;-69
2024/04/08 06:44:03;;;;;;;2.60;1.48;;;17.90;74.00;;;;;;5500444;25;20135;-69
2024/04/08 06:46:29;;;;;;;2.58;1.23;;;18.00;74.30;;;;;;5496873;25;19998;-69
2024/04/08 06:48:56;;;;;;;3.95;1.73;;;18.10;73.20;;;;;;5497668;25;19982;-69
2024/04/08 06:51:21;;;;;;;1.77;1.20;;;18.30;71.70;;;;;;5497332;25;19990;-69
2024/04/08 06:53:47;;;;;;;2.22;1.40;;;18.40;70.10;;;;;;5497566;25;19993;-69
2024/04/08 06:56:14;;;;;;;2.83;1.45;;;18.50;68.60;;;;;;5497513;25;20002;-69
2024/04/08 06:58:41;;;;;;;1.42;1.30;;;18.60;66.90;;;;;;5496594;26;19982;-68
2024/04/08 07:01:07;;;;;;;4.38;1.60;;;18.70;65.70;;;;;;5522964;25;20055;-68
2024/04/08 07:03:32;;;;;;;3.60;1.20;;;18.80;63.40;;;;;;5497752;25;19990;-69
2024/04/08 07:05:59;;;;;;;2.90;1.55;;;19.00;84.70;;;;;;5498558;25;20522;-69
2024/04/08 07:08:24;;;;;;;2.05;1.25;;;18.90;63.90;;;;;;5482867;25;19997;-69
2024/04/08 07:10:50;;;;;;;4.03;1.58;;;19.00;62.00;;;;;;5525066;26;19993;-69
2024/04/08 07:13:17;;;;;;;1.52;1.33;;;19.20;62.10;;;;;;5507665;25;20001;-69
2024/04/08 07:15:42;;;;;;;3.92;2.00;;;19.20;61.10;;;;;;5497715;25;19998;-69
2024/04/08 07:18:10;;;;;;;2.65;1.60;;;19.30;61.00;;;;;;5497290;25;20058;-69
2024/04/08 07:20:38;;;;;;;2.70;1.40;;;19.40;60.90;;;;;;5521071;26;19988;-68
2024/04/08 07:23:04;;;;;;;4.80;1.70;;;19.40;60.00;;;;;;5503133;25;19998;-69
2024/04/08 07:25:29;;;;;;;1.67;1.35;;;19.40;59.50;;;;;;5497333;25;20038;-69
2024/04/08 07:27:55;;;;;;;4.80;3.25;;;19.50;59.60;;;;;;5497412;25;19982;-69
2024/04/08 07:30:22;;;;;;;4.82;1.70;;;19.50;59.50;;;;;;5501041;25;20006;-69
2024/04/08 07:32:48;;;;;;;2.78;1.67;;;19.50;59.40;;;;;;5497034;25;20010;-69
2024/04/08 07:35:19;;;;;;;2.72;1.70;;;19.60;59.60;;;;;;5497129;25;19992;-69
2024/04/08 07:37:45;;;;;;;2.90;1.58;;;19.60;58.70;;;;;;5497198;25;19986;-69
2024/04/08 07:40:10;;;;;;;2.88;2.10;;;19.70;66.90;;;;;;5497966;25;20005;-69
2024/04/08 07:42:36;;;;;;;2.95;1.55;;;19.70;72.30;;;;;;5496019;25;19990;-69
2024/04/08 07:45:02;;;;;;;4.40;2.13;;;19.80;72.50;;;;;;5496858;25;20240;-69
2024/04/08 07:47:27;;;;;;;3.00;1.75;;;19.80;72.60;;;;;;5497124;25;20041;-69
2024/04/08 07:49:56;;;;;;;2.72;1.58;;;19.70;72.40;;;;;;5497026;25;20186;-69
2024/04/08 07:52:21;;;;;;;1.67;1.52;;;19.80;73.60;;;;;;5495889;25;20261;-69
2024/04/08 07:54:47;;;;;;;2.72;1.80;;;20.20;71.60;;;;;;5497131;25;20015;-69
2024/04/08 07:57:13;;;;;;;5.93;1.60;;;20.10;71.10;;;;;;5497754;25;19993;-68
2024/04/08 07:59:39;;;;;;;6.20;1.98;;;20.20;70.80;;;;;;5497149;25;20090;-69
2024/04/08 08:02:05;;;;;;;3.13;1.67;;;20.30;70.70;;;;;;5497269;25;19993;-66
2024/04/08 08:04:31;;;;;;;3.90;1.80;;;20.20;71.40;;;;;;5528977;25;19993;-66
2024/04/08 08:06:56;;;;;;;1.83;1.42;;;20.40;71.70;;;;;;5532166;25;20039;-66
2024/04/08 08:09:22;;;;;;;5.32;1.70;;;20.50;71.80;;;;;;5496131;25;20213;-66
2024/04/08 08:11:48;;;;;;;8.55;1.80;;;20.40;58.50;;;;;;5502456;25;19985;-66
2024/04/08 08:14:14;;;;;;;1.70;1.60;;;20.60;57.80;;;;;;5522699;25;19986;-67
2024/04/08 08:16:41;;;;;;;2.78;1.35;;;20.80;70.50;;;;;;5496611;25;19997;-66
2024/04/08 08:19:07;;;;;;;2.97;1.92;;;20.90;57.70;;;;;;5496526;25;20203;-67
2024/04/08 08:21:33;;;;;;;8.40;1.90;;;21.10;57.30;;;;;;5496643;25;19996;-67
2024/04/08 08:23:58;;;;;;;8.38;1.80;;;21.30;56.80;;;;;;5496540;25;20474;-66
2024/04/08 08:26:28;;;;;;;4.38;2.00;;;21.40;56.50;;;;;;5481324;25;19997;-66
2024/04/08 08:28:54;;;;;;;3.10;1.63;;;22.00;57.00;;;;;;5495269;26;20012;-67
2024/04/08 08:31:20;;;;;;;5.10;2.05;;;21.80;56.50;;;;;;5497057;25;20270;-67
2024/04/08 08:33:46;;;;;;;2.67;1.80;;;21.90;55.80;;;;;;5495939;25;20006;-66
2024/04/08 08:36:12;;;;;;;3.00;1.80;;;22.00;55.70;;;;;;5496056;25;19990;-68
2024/04/08 08:38:37;;;;;;;5.40;1.85;;;22.10;55.60;;;;;;5495198;26;19982;-66
2024/04/08 08:41:06;;;;;;;2.65;1.60;;;22.20;55.20;;;;;;5496001;25;20079;-67
2024/04/08 08:43:32;;;;;;;3.78;1.60;;;22.20;54.90;;;;;;5496374;25;20001;-67
2024/04/08 08:45:59;;;;;;;3.92;1.75;;;22.30;54.20;;;;;;5496255;25;19990;-67
2024/04/08 08:48:25;;;;;;;2.70;2.08;;;22.30;54.80;;;;;;5505548;25;20043;-67
2024/04/08 08:50:51;;;;;;;7.93;2.42;;;22.40;54.90;;;;;;5496160;25;19997;-67
2024/04/08 08:53:17;;;;;;;4.25;1.90;;;22.40;54.50;;;;;;5495659;25;20102;-67
2024/04/08 08:55:44;;;;;;;2.95;2.00;;;22.40;55.10;;;;;;5496121;25;20030;-67
2024/04/08 08:58:12;;;;;;;7.03;2.30;;;22.40;55.10;;;;;;5495385;25;19989;-66
2024/04/08 09:00:39;;;;;;;6.90;2.60;;;22.40;55.50;;;;;;5495911;25;20095;-67
2024/04/08 09:03:12;;;;;;;8.38;2.40;;;22.50;55.80;;;;;;5494583;25;19982;-67
2024/04/08 09:05:37;;;;;;;4.18;2.00;;;22.50;56.20;;;;;;5496732;25;19986;-66
2024/04/08 09:08:03;;;;;;;5.35;2.42;;;22.50;56.00;;;;;;5495757;25;20082;-67
2024/04/08 09:10:46;;;;;;;5.30;2.10;;;22.60;55.80;;;;;;5495554;25;19986;-67
2024/04/08 09:13:22;;;;;;;4.32;2.92;;;22.90;55.10;;;;;;5503800;25;20006;-67
2024/04/08 09:15:48;;;;;;;4.80;2.42;;;22.90;55.50;;;;;;5495439;25;19994;-67
2024/04/08 09:18:16;;;;;;;5.40;2.50;;;23.00;55.70;;;;;;5495291;25;20182;-67
2024/04/08 09:20:42;;;;;;;4.97;2.20;;;23.10;55.10;;;;;;5521241;26;20066;-67
2024/04/08 09:23:08;;;;;;;5.90;2.67;;;23.20;54.60;;;;;;5498866;25;19990;-67
2024/04/08 09:25:35;;;;;;;7.05;2.70;;;23.30;54.50;;;;;;5499071;25;19990;-67
2024/04/08 09:28:02;;;;;;;7.35;2.28;;;23.50;54.40;;;;;;5497849;25;20465;-67
2024/04/08 09:30:28;;;;;;;4.38;2.72;;;23.60;54.00;;;;;;5520786;26;19989;-67
2024/04/08 09:32:56;;;;;;;4.50;2.30;;;23.70;53.60;;;;;;5506231;25;20022;-67
2024/04/08 09:35:22;;;;;;;4.53;2.70;;;23.90;53.20;;;;;;5498849;25;20278;-67
2024/04/08 09:37:48;;;;;;;3.78;2.88;;;24.00;53.00;;;;;;5499848;25;19994;-67
2024/04/08 09:40:18;;;;;;;6.18;2.78;;;24.10;52.80;;;;;;5497978;25;20022;-67
2024/04/08 09:42:47;;;;;;;9.85;3.10;;;24.10;52.60;;;;;;5499076;25;19994;-67
2024/04/08 09:45:15;;;;;;;7.93;3.45;;;24.20;52.70;;;;;;5498891;25;20285;-67
2024/04/08 09:47:41;;;;;;;;;;;24.30;52.60;;;;;;5499737;25;19990;-67
2024/04/08 09:50:12;;;;;;;5.55;2.42;;;24.40;52.50;;;;;;5498914;25;19931;-67
2024/04/08 09:52:38;;;;;;;4.40;2.70;;;24.40;52.50;;;;;;5497947;25;19986;-67
2024/04/08 09:55:05;;;;;;;12.45;3.05;;;24.50;52.70;;;;;;5499470;25;19998;-68
2024/04/08 09:57:35;;;;;;;5.95;3.10;;;24.70;52.50;;;;;;5502695;25;20198;-67
2024/04/08 10:00:02;;;;;;;3.28;2.30;;;;;;;;;;5498423;25;19986;-68
2024/04/08 10:02:37;;;;;;;5.32;2.50;;;24.80;51.10;;;;;;5498633;25;20521;-67
2024/04/08 10:05:04;;;;;;;7.13;2.85;;;24.80;51.40;;;;;;5498412;25;20406;-67
2024/04/08 10:07:32;;;;;;;9.30;2.87;;;24.80;51.50;;;;;;5498550;25;19994;-67
2024/04/08 10:10:01;;;;;;;8.45;2.70;;;24.90;51.40;;;;;;5498391;25;20002;-67
2024/04/08 10:12:36;;;;;;;4.22;2.50;;;24.90;51.10;;;;;;5505355;25;19999;-67
2024/04/08 10:15:15;;;;;;;6.00;2.58;;;24.90;50.60;;;;;;5497907;25;19990;-67
2024/04/08 10:17:45;;;;;;;5.65;2.22;;;25.10;51.10;;;;;;5498331;25;19990;-68
2024/04/08 10:20:15;;;;;;;6.93;2.60;;;25.10;50.60;;;;;;5498385;25;19994;-69
2024/04/08 10:22:41;;;;;;;4.53;2.25;;;24.30;50.70;;;;;;5498335;25;20136;-69
2024/04/08 10:25:47;;;;;;;6.97;2.58;;;25.80;77.90;;;;;;5498242;25;20001;-67
2024/04/08 10:28:19;;;;;;;10.15;2.55;;;25.50;49.70;;;;;;5501847;25;19986;-67
2024/04/08 10:30:50;;;;;;;6.20;2.60;;;25.60;50.30;;;;;;5500857;25;19986;-68
2024/04/08 10:33:16;;;;;;;4.97;2.83;;;25.70;50.10;;;;;;5497027;25;20207;-67
2024/04/08 10:35:42;;;;;;;5.40;2.80;;;25.80;49.70;;;;;;5498442;25;19986;-67
2024/04/08 10:38:08;;;;;;;5.40;2.45;;;26.00;49.60;;;;;;5498234;25;19990;-67
2024/04/08 10:40:34;;;;;;;5.60;2.35;;;26.10;49.30;;;;;;5502227;25;20000;-67
2024/04/08 10:43:00;;;;;;;7.05;2.17;;;26.20;49.00;;;;;;5498073;25;20035;-68
2024/04/08 10:45:26;;;;;;;6.07;2.38;;;26.40;48.50;;;;;;5498101;25;19986;-67
2024/04/08 10:47:59;;;;;;;5.80;2.33;;;26.60;48.00;;;;;;5498859;25;19994;-67
2024/04/08 10:50:28;;;;;;;5.53;2.03;;;26.60;47.70;;;;;;5497719;25;20169;-67
2024/04/08 10:52:53;;;;;;;5.05;2.03;;;26.70;48.00;;;;;;5497656;25;19998;-67
2024/04/08 10:55:19;;;;;;;5.13;2.20;;;26.80;47.20;;;;;;5497605;25;20013;-67
2024/04/08 10:57:45;;;;;;;5.40;1.83;;;26.60;47.20;;;;;;5497983;25;20209;-67
2024/04/08 11:00:11;;;;;;;8.50;2.30;;;26.60;47.30;;;;;;5497435;25;20002;-68
2024/04/08 11:02:39;;;;;;;4.50;2.38;;;26.60;47.30;;;;;;5499180;25;19990;-67
2024/04/08 11:05:06;;;;;;;6.53;1.95;;;26.70;47.30;;;;;;5539912;25;19999;-68
2024/04/08 11:07:38;;;;;;;5.55;1.77;;;26.90;47.20;;;;;;5497731;25;20203;-67
2024/04/08 11:10:10;;;;;;;8.98;1.95;;;27.00;46.00;;;;;;5497438;25;19996;-67
2024/04/08 11:12:36;;;;;;;3.15;1.80;;;27.10;45.20;;;;;;5506212;25;20428;-67
2024/04/08 11:15:03;;;;;;;2.75;1.15;;;27.10;43.70;;;;;;5497342;25;20235;-66
2024/04/08 11:17:29;;;;;;;5.55;2.50;;;27.10;44.10;;;;;;5497566;25;19990;-67
2024/04/08 11:19:59;;;;;;;4.18;1.27;;;27.20;43.60;;;;;;5498360;25;19996;-67
2024/04/08 11:22:26;;;;;;;1.15;1.05;;;27.20;43.10;;;;;;5497739;25;20517;-67
2024/04/08 11:24:53;;;;;;;2.20;1.40;;;27.30;43.10;;;;;;5497501;25;20005;-67
2024/04/08 11:27:21;;;;;;;2.90;1.05;;;27.40;42.60;;;;;;5497313;25;20841;-67
2024/04/08 11:29:47;;;;;;;2.92;1.20;;;27.70;58.90;;;;;;5496502;25;20018;-67
2024/04/08 11:32:15;;;;;;;1.25;1.00;;;27.60;41.40;;;;;;5497445;25;19994;-67
2024/04/08 11:34:44;;;;;;;3.47;1.50;;;27.50;41.40;;;;;;5497331;25;20044;-69
2024/04/08 11:37:10;;;;;;;2.42;1.10;;;27.50;41.20;;;;;;5501940;25;20001;-67
2024/04/08 11:39:40;;;;;;;3.00;1.08;;;27.50;40.80;;;;;;5520665;26;20013;-69
2024/04/08 11:42:07;;;;;;;2.75;1.33;;;27.50;41.20;;;;;;5500574;25;19998;-67
2024/04/08 11:44:34;;;;;;;2.85;1.45;;;27.50;41.30;;;;;;5497062;25;20206;-67
2024/04/08 11:47:01;;;;;;;1.80;1.00;;;27.60;41.40;;;;;;5496858;25;19994;-67
2024/04/08 11:49:27;;;;;;;2.08;1.02;;;27.50;41.30;;;;;;5496941;25;20000;-67
2024/04/08 11:51:53;;;;;;;2.85;0.93;;;27.40;55.30;;;;;;5496842;25;20219;-67
2024/04/08 11:54:19;;;;;;;3.53;1.17;;;27.40;41.60;;;;;;5497553;25;20050;-69
2024/04/08 11:56:45;;;;;;;3.97;1.15;;;27.40;41.30;;;;;;5496550;25;21156;-69
2024/04/08 11:59:11;;;;;;;5.28;1.63;;;27.50;42.00;;;;;;5496801;25;20344;-67
2024/04/08 12:01:36;;;;;;;4.45;1.30;;;27.50;40.60;;;;;;5496896;25;20199;-66
2024/04/08 12:04:03;;;;;;;3.47;1.30;;;27.40;41.50;;;;;;5496577;25;20206;-67
2024/04/08 12:06:29;;;;;;;2.90;1.20;;;27.30;40.90;;;;;;5496947;25;19986;-69
2024/04/08 12:08:56;;;;;;;3.95;1.70;;;27.30;41.80;;;;;;5496860;25;19990;-69
2024/04/08 12:11:22;;;;;;;5.25;1.80;;;27.40;41.60;;;;;;5497645;25;19986;-70
2024/04/08 12:13:48;;;;;;;5.55;1.40;;;27.50;41.30;;;;;;5505458;25;19994;-69
2024/04/08 12:16:14;;;;;;;2.17;1.10;;;27.50;41.70;;;;;;5496332;25;20025;-69
2024/04/08 12:18:40;;;;;;;1.33;1.13;;;27.50;41.00;;;;;;5496738;25;19986;-68
2024/04/08 12:21:05;;;;;;;2.00;1.33;;;27.50;41.60;;;;;;5496573;25;19994;-68
2024/04/08 12:23:31;;;;;;;2.83;1.20;;;27.70;54.10;;;;;;5496597;25;19998;-66
2024/04/08 12:25:57;;;;;;;2.92;1.00;;;27.70;41.90;;;;;;5525538;26;20002;-67
2024/04/08 12:28:22;;;;;;;3.42;1.23;;;27.70;41.80;;;;;;5497573;25;19986;-69
2024/04/08 12:30:48;;;;;;;2.65;1.30;;;27.70;41.80;;;;;;5496408;25;20004;-68
2024/04/08 12:33:14;;;;;;;2.80;1.10;;;27.70;42.50;;;;;;5495730;25;20012;-69
2024/04/08 12:35:40;;;;;;;2.95;1.30;;;27.70;42.40;;;;;;5496199;25;19998;-69
2024/04/08 12:38:08;;;;;;;3.05;1.20;;;26.60;41.50;;;;;;5495962;25;20158;-67
2024/04/08 12:40:35;;;;;;;3.88;1.25;;;27.50;42.40;;;;;;5495947;25;20006;-68
2024/04/08 12:43:01;;;;;;;4.85;1.30;;;27.50;54.00;;;;;;5495735;25;19990;-68
2024/04/08 12:45:27;;;;;;;2.83;1.15;;;27.70;53.80;;;;;;5496664;25;20294;-67
2024/04/08 12:47:53;;;;;;;6.75;1.20;;;27.50;42.00;;;;;;5522853;26;19993;-69
2024/04/08 12:50:18;;;;;;;4.20;1.15;;;27.60;41.90;;;;;;5497403;25;19994;-67